createdAt,value
2023-04-06T00:00:51.304Z,9.83
2023-04-06T00:03:54.912Z,13.97
2023-04-06T00:06:58.585Z,13.90
2023-04-06T00:10:04.215Z,12.53
2023-04-06T00:13:08.399Z,10.87
2023-04-06T00:16:11.988Z,11.80
2023-04-06T00:19:16.257Z,12.60
2023-04-06T00:22:19.826Z,13.47
2023-04-06T00:25:24.767Z,13.70
2023-04-06T00:28:29.325Z,16.60
2023-04-06T00:31:32.975Z,15.23
2023-04-06T00:34:36.529Z,13.87
2023-04-06T00:37:40.088Z,14.70
2023-04-06T00:40:46.414Z,13.03
2023-04-06T00:43:50.298Z,15.37
2023-04-06T00:46:54.068Z,13.60
2023-04-06T00:49:57.762Z,15.60
2023-04-06T00:53:01.522Z,13.70
2023-04-06T00:56:07.364Z,14.37
2023-04-06T00:59:11.302Z,15.07
2023-04-06T01:02:15.069Z,13.60
2023-04-06T01:05:19.018Z,16.30
2023-04-06T01:08:22.920Z,14.43
2023-04-06T01:11:28.286Z,15.87
2023-04-06T01:14:32.021Z,15.73
2023-04-06T01:17:36.329Z,14.33
2023-04-06T01:20:40.185Z,18.03
2023-04-06T01:23:47.079Z,17.40
2023-04-06T01:26:50.760Z,15.67
2023-04-06T01:29:54.286Z,17.67
2023-04-06T01:32:57.984Z,17.20
2023-04-06T01:36:02.085Z,17.40
2023-04-06T01:39:07.403Z,16.53
2023-04-06T01:42:11.146Z,14.00
2023-04-06T01:45:14.852Z,16.80
2023-04-06T01:48:18.749Z,16.63
2023-04-06T01:51:22.359Z,18.13
2023-04-06T01:54:27.223Z,15.83
2023-04-06T01:57:30.771Z,19.43
2023-04-06T02:00:34.478Z,16.33
2023-04-06T02:03:37.966Z,19.90
2023-04-06T02:06:41.505Z,16.83
2023-04-06T02:09:46.489Z,18.93
2023-04-06T02:12:50.260Z,15.37
2023-04-06T02:15:53.796Z,19.87
2023-04-06T02:18:57.290Z,19.17
2023-04-06T02:22:01.378Z,17.20
2023-04-06T02:25:07.246Z,14.47
2023-04-06T02:28:10.779Z,17.23
2023-04-06T02:31:16.047Z,16.57
2023-04-06T02:34:19.717Z,17.97
2023-04-06T02:37:24.287Z,19.03
2023-04-06T02:40:29.200Z,18.10
2023-04-06T02:43:33.525Z,14.87
2023-04-06T02:46:37.229Z,15.37
2023-04-06T02:49:40.842Z,16.47
2023-04-06T02:52:44.481Z,16.33
2023-04-06T02:55:49.450Z,15.23
2023-04-06T02:58:53.237Z,14.13
2023-04-06T03:01:56.873Z,12.87
2023-04-06T03:05:00.554Z,14.60
2023-04-06T03:08:04.092Z,12.97
2023-04-06T03:11:09.273Z,15.43
2023-04-06T03:14:14.003Z,13.83
2023-04-06T03:17:17.557Z,14.43
2023-04-06T03:20:21.108Z,15.70
2023-04-06T03:23:24.890Z,15.33
2023-04-06T03:26:29.839Z,15.77
2023-04-06T03:29:33.409Z,15.97
2023-04-06T03:32:37.035Z,13.57
2023-04-06T03:35:40.702Z,12.03
2023-04-06T03:38:44.286Z,13.87
2023-04-06T03:41:49.259Z,13.40
2023-04-06T03:44:52.903Z,15.10
2023-04-06T03:47:56.522Z,13.20
2023-04-06T03:51:00.114Z,18.67
2023-04-06T03:54:03.614Z,14.97
2023-04-06T03:57:08.633Z,15.27
2023-04-06T04:00:14.285Z,20.40
2023-04-06T04:03:17.928Z,17.47
2023-04-06T04:06:21.741Z,17.13
2023-04-06T04:09:26.354Z,16.37
2023-04-06T04:12:32.971Z,13.03
2023-04-06T04:15:36.644Z,16.73
2023-04-06T04:18:40.184Z,14.30
2023-04-06T04:21:48.626Z,14.17
2023-04-06T04:24:52.764Z,13.50
2023-04-06T04:27:57.689Z,14.47
2023-04-06T04:31:01.497Z,12.23
2023-04-06T04:34:05.122Z,15.67
2023-04-06T04:37:08.815Z,17.23
2023-04-06T04:40:13.624Z,14.33
2023-04-06T04:43:18.867Z,11.17
2023-04-06T04:46:22.788Z,13.33
2023-04-06T04:49:26.539Z,15.37
2023-04-06T04:52:30.033Z,12.53
2023-04-06T04:55:33.810Z,16.20
2023-04-06T04:58:39.468Z,12.53
2023-04-06T05:01:54.368Z,13.67
2023-04-06T05:04:59.164Z,15.83
2023-04-06T05:08:02.773Z,16.80
2023-04-06T05:11:06.563Z,18.87
2023-04-06T05:14:12.175Z,16.73
2023-04-06T05:17:16.054Z,16.40
2023-04-06T05:20:20.000Z,15.53
2023-04-06T05:23:23.645Z,13.30
2023-04-06T05:26:27.276Z,11.73
2023-04-06T05:29:32.437Z,14.00
2023-04-06T05:32:37.287Z,13.27
2023-04-06T05:35:41.185Z,14.80
2023-04-06T05:38:44.805Z,13.40
2023-04-06T05:41:48.852Z,16.83
2023-04-06T05:44:53.791Z,15.20
2023-04-06T05:47:58.618Z,13.00
2023-04-06T05:51:03.183Z,14.37
2023-04-06T05:54:06.957Z,13.80
2023-04-06T05:57:11.565Z,15.27
2023-04-06T06:00:17.615Z,11.77
2023-04-06T06:03:23.776Z,14.97
2023-04-06T06:06:28.045Z,13.90
2023-04-06T06:09:31.680Z,14.37
2023-04-06T06:12:35.346Z,9.97
2023-04-06T06:15:40.302Z,14.57
2023-04-06T06:18:43.963Z,9.70
2023-04-06T06:21:47.500Z,13.70
2023-04-06T06:24:51.557Z,9.67
2023-04-06T06:27:55.081Z,14.20
2023-04-06T06:31:00.218Z,14.40
2023-04-06T06:34:03.991Z,11.00
2023-04-06T06:37:08.938Z,11.73
2023-04-06T06:40:14.754Z,11.40
2023-04-06T06:43:18.410Z,11.07
2023-04-06T06:46:23.510Z,10.70
2023-04-06T06:49:27.137Z,9.70
2023-04-06T06:52:30.673Z,9.73
2023-04-06T06:55:34.322Z,10.40
2023-04-06T06:58:38.113Z,9.87
2023-04-06T07:01:43.608Z,9.83
2023-04-06T07:04:50.511Z,11.40
2023-04-06T07:07:54.118Z,11.60
2023-04-06T07:10:58.020Z,10.60
2023-04-06T07:14:01.610Z,11.20
2023-04-06T07:17:06.696Z,8.40
2023-04-06T07:20:11.876Z,9.50
2023-04-06T07:23:16.091Z,12.20
2023-04-06T07:26:19.771Z,8.97
2023-04-06T07:29:24.024Z,12.50
2023-04-06T07:32:29.099Z,8.83
2023-04-06T07:35:33.197Z,11.03
2023-04-06T07:38:36.761Z,8.57
2023-04-06T07:41:40.821Z,9.83
2023-04-06T07:44:44.429Z,10.33
2023-04-06T07:47:49.807Z,11.30
2023-04-06T07:50:53.493Z,8.77
2023-04-06T07:53:57.109Z,7.70
2023-04-06T07:57:00.643Z,10.03
2023-04-06T08:00:05.254Z,7.60
2023-04-06T08:03:10.282Z,12.07
2023-04-06T08:06:13.936Z,12.03
2023-04-06T08:09:17.485Z,7.83
2023-04-06T08:12:21.109Z,7.90
2023-04-06T08:15:24.779Z,8.87
2023-04-06T08:18:30.981Z,6.93
2023-04-06T08:21:35.389Z,8.30
2023-04-06T08:24:39.084Z,7.93
2023-04-06T08:27:42.695Z,7.00
2023-04-06T08:30:46.348Z,10.43
2023-04-06T08:33:51.308Z,8.63
2023-04-06T08:36:54.941Z,9.33
2023-04-06T08:39:59.749Z,7.07
2023-04-06T08:43:12.450Z,7.07
2023-04-06T08:46:17.286Z,6.20
2023-04-06T08:49:23.251Z,10.93
2023-04-06T08:52:29.862Z,7.13
2023-04-06T08:55:33.838Z,5.63
2023-04-06T08:58:41.279Z,8.43
2023-04-06T09:01:47.804Z,7.97
2023-04-06T09:04:56.427Z,7.97
2023-04-06T09:08:00.183Z,9.63
2023-04-06T09:11:04.250Z,7.83
2023-04-06T09:14:08.175Z,6.83
2023-04-06T09:17:23.646Z,8.20
2023-04-06T09:20:30.475Z,7.40
2023-04-06T09:23:34.371Z,9.33
2023-04-06T09:26:49.055Z,8.50
2023-04-06T09:29:52.693Z,7.87
2023-04-06T09:33:00.424Z,9.17
2023-04-06T09:36:05.908Z,9.77
2023-04-06T09:39:09.457Z,8.50
2023-04-06T09:42:26.530Z,7.17
2023-04-06T09:45:32.877Z,8.83
2023-04-06T09:48:38.159Z,8.73
2023-04-06T09:51:48.504Z,7.27
2023-04-06T09:54:55.723Z,13.07
2023-04-06T09:58:07.193Z,8.23
2023-04-06T10:01:17.410Z,8.07
2023-04-06T10:04:42.717Z,7.87
2023-04-06T10:08:00.125Z,10.63
2023-04-06T10:11:06.750Z,8.73
2023-04-06T10:14:12.878Z,6.67
2023-04-06T10:17:16.472Z,9.47
2023-04-06T10:20:30.100Z,8.40
2023-04-06T10:23:42.225Z,10.13
2023-04-06T10:26:46.070Z,9.87
2023-04-06T10:29:52.302Z,10.27
2023-04-06T10:32:55.974Z,9.03
2023-04-06T10:35:59.891Z,8.90
2023-04-06T10:39:07.566Z,10.73
2023-04-06T10:42:11.716Z,8.90
2023-04-06T10:45:23.937Z,10.10
2023-04-06T10:48:38.556Z,10.50
2023-04-06T10:51:42.388Z,12.47
2023-04-06T10:54:50.445Z,11.17
2023-04-06T10:57:54.632Z,11.20
2023-04-06T11:00:58.473Z,10.73
2023-04-06T11:04:02.249Z,13.80
2023-04-06T11:07:06.363Z,9.57
2023-04-06T11:10:17.549Z,10.10
2023-04-06T11:13:22.975Z,12.67
2023-04-06T11:16:29.195Z,11.23
2023-04-06T11:19:34.598Z,12.27
2023-04-06T11:22:38.160Z,11.87
2023-04-06T11:25:53.932Z,9.27
2023-04-06T11:28:57.603Z,11.17
2023-04-06T11:32:04.008Z,12.60
2023-04-06T11:35:08.985Z,10.13
2023-04-06T11:38:12.646Z,11.93
2023-04-06T11:41:17.697Z,13.00
2023-04-06T11:44:34.235Z,10.00
2023-04-06T11:47:39.675Z,11.00
2023-04-06T11:50:43.353Z,11.10
2023-04-06T11:53:47.945Z,12.17
2023-04-06T11:56:52.965Z,12.00
2023-04-06T11:59:57.698Z,12.50
2023-04-06T12:03:01.436Z,10.57
2023-04-06T12:06:05.103Z,9.77
2023-04-06T12:09:08.731Z,11.57
2023-04-06T12:12:13.697Z,9.90
2023-04-06T12:15:17.424Z,13.40
2023-04-06T12:18:21.142Z,11.83
2023-04-06T12:21:24.870Z,11.63
2023-04-06T12:24:29.337Z,11.37
2023-04-06T12:27:34.408Z,9.63
2023-04-06T12:30:38.212Z,10.60
2023-04-06T12:33:41.729Z,10.00
2023-04-06T12:36:45.453Z,9.67
2023-04-06T12:39:49.096Z,10.13
2023-04-06T12:42:54.099Z,11.53
2023-04-06T12:45:57.614Z,12.30
2023-04-06T12:49:02.144Z,11.07
2023-04-06T12:52:06.107Z,11.47
2023-04-06T12:55:11.091Z,11.97
2023-04-06T12:58:16.298Z,12.47
2023-04-06T13:01:21.145Z,10.77
2023-04-06T13:04:25.688Z,13.50
2023-04-06T13:07:29.752Z,10.60
2023-04-06T13:10:33.270Z,11.73
2023-04-06T13:13:39.340Z,10.47
2023-04-06T13:16:43.797Z,10.00
2023-04-06T13:19:47.598Z,9.60
2023-04-06T13:22:51.152Z,9.70
2023-04-06T13:26:01.863Z,11.37
2023-04-06T13:29:06.826Z,12.47
2023-04-06T13:32:11.368Z,12.40
2023-04-06T13:35:15.602Z,11.37
2023-04-06T13:38:19.437Z,13.57
2023-04-06T13:41:24.298Z,13.43
2023-04-06T13:44:30.990Z,11.93
2023-04-06T13:47:34.715Z,13.17
2023-04-06T13:50:38.342Z,11.27
2023-04-06T13:53:42.716Z,15.60
2023-04-06T13:56:47.332Z,13.33
2023-04-06T13:59:52.198Z,11.90
2023-04-06T14:02:57.080Z,10.27
2023-04-06T14:06:05.052Z,11.67
2023-04-06T14:09:19.604Z,11.00
2023-04-06T14:12:23.248Z,11.27
2023-04-06T14:15:28.986Z,10.20
2023-04-06T14:18:32.469Z,10.00
2023-04-06T14:21:36.116Z,15.57
2023-04-06T14:24:39.707Z,15.10
2023-04-06T14:27:44.171Z,11.43
2023-04-06T14:30:49.020Z,16.93
2023-04-06T14:33:53.773Z,26.23
2023-04-06T14:36:57.842Z,20.77
2023-04-06T14:40:01.382Z,11.67
2023-04-06T14:43:05.116Z,15.13
2023-04-06T14:46:10.133Z,12.43
2023-04-06T14:49:16.231Z,14.27
2023-04-06T14:52:19.902Z,13.33
2023-04-06T14:55:23.685Z,13.83
2023-04-06T14:58:28.331Z,11.37
2023-04-06T15:01:37.134Z,10.63
2023-04-06T15:04:42.049Z,10.23
2023-04-06T15:07:50.494Z,12.60
2023-04-06T15:10:55.667Z,12.27
2023-04-06T15:13:59.327Z,13.50
2023-04-06T15:17:04.426Z,12.53
2023-04-06T15:20:09.473Z,11.63
2023-04-06T15:23:13.424Z,14.30
2023-04-06T15:26:17.001Z,11.00
2023-04-06T15:29:21.366Z,10.57
2023-04-06T15:32:27.260Z,12.70
2023-04-06T15:35:31.723Z,11.03
2023-04-06T15:38:35.896Z,11.47
2023-04-06T15:41:39.610Z,11.83
2023-04-06T15:44:43.675Z,12.10
2023-04-06T15:47:48.830Z,12.30
2023-04-06T15:50:53.290Z,12.10
2023-04-06T15:53:57.199Z,11.87
2023-04-06T15:57:01.540Z,10.93
2023-04-06T16:00:07.184Z,12.37
2023-04-06T16:03:12.306Z,12.67
2023-04-06T16:06:16.482Z,11.10
2023-04-06T16:09:20.312Z,12.10
2023-04-06T16:12:25.168Z,11.43
2023-04-06T16:15:29.496Z,16.33
2023-04-06T16:18:36.485Z,10.70
2023-04-06T16:21:40.325Z,13.43
2023-04-06T16:24:43.986Z,11.23
2023-04-06T16:27:48.249Z,11.10
2023-04-06T16:30:51.969Z,12.33
2023-04-06T16:33:58.047Z,9.13
2023-04-06T16:37:02.646Z,10.70
2023-04-06T16:40:08.477Z,10.13
2023-04-06T16:43:12.193Z,9.17
2023-04-06T16:46:15.955Z,15.07
2023-04-06T16:49:21.341Z,9.67
2023-04-06T16:52:24.973Z,12.37
2023-04-06T16:55:28.601Z,11.37
2023-04-06T16:58:32.852Z,11.60
2023-04-06T17:01:36.605Z,10.77
2023-04-06T17:04:41.814Z,12.37
2023-04-06T17:07:45.441Z,14.80
2023-04-06T17:10:59.287Z,10.17
2023-04-06T17:14:06.701Z,21.13
2023-04-06T17:17:10.322Z,12.00
2023-04-06T17:20:15.494Z,11.90
2023-04-06T17:23:21.152Z,12.07
2023-04-06T17:26:24.899Z,20.33
2023-04-06T17:29:28.423Z,20.23
2023-04-06T17:32:32.713Z,12.67
2023-04-06T17:35:38.121Z,14.50
2023-04-06T17:38:44.123Z,11.43
2023-04-06T17:41:47.858Z,13.93
2023-04-06T17:44:53.323Z,15.30
2023-04-06T17:47:57.126Z,16.20
2023-04-06T17:51:02.096Z,15.10
2023-04-06T17:54:05.950Z,14.07
2023-04-06T17:57:09.496Z,12.37
2023-04-06T18:00:15.788Z,16.13
2023-04-06T18:03:19.295Z,13.50
2023-04-06T18:06:25.761Z,10.87
2023-04-06T18:09:32.296Z,14.03
2023-04-06T18:12:36.160Z,13.87
2023-04-06T18:15:57.301Z,13.73
2023-04-06T18:19:04.494Z,15.77
2023-04-06T18:22:10.630Z,13.97
2023-04-06T18:25:14.289Z,13.67
2023-04-06T18:28:17.894Z,16.30
2023-04-06T18:31:22.017Z,13.30
2023-04-06T18:34:25.728Z,30.10
2023-04-06T18:37:30.850Z,34.37
2023-04-06T18:40:36.940Z,20.47
2023-04-06T18:43:40.520Z,33.70
2023-04-06T18:46:46.073Z,21.20
2023-04-06T18:49:50.101Z,71.47
2023-04-06T18:52:55.172Z,40.30
2023-04-06T18:55:59.084Z,62.87
2023-04-06T18:59:02.629Z,35.33
2023-04-06T19:02:06.479Z,16.80
2023-04-06T19:05:12.149Z,27.93
2023-04-06T19:08:17.268Z,22.53
2023-04-06T19:11:23.278Z,18.83
2023-04-06T19:14:26.942Z,18.07
2023-04-06T19:17:30.618Z,18.23
2023-04-06T19:20:35.691Z,16.83
2023-04-06T19:23:40.648Z,19.73
2023-04-06T19:26:45.055Z,22.03
2023-04-06T19:29:48.606Z,22.80
2023-04-06T19:32:52.949Z,21.70
2023-04-06T19:35:56.531Z,32.07
2023-04-06T19:39:01.811Z,20.00
2023-04-06T19:42:05.872Z,18.73
2023-04-06T19:45:10.391Z,16.87
2023-04-06T19:48:13.944Z,16.40
2023-04-06T19:51:17.613Z,15.13
2023-04-06T19:54:22.788Z,16.13
2023-04-06T19:57:27.542Z,13.63
2023-04-06T20:00:31.456Z,13.83
2023-04-06T20:03:36.530Z,11.53
2023-04-06T20:06:40.215Z,10.47
2023-04-06T20:09:45.141Z,9.63
2023-04-06T20:12:48.812Z,11.03
2023-04-06T20:15:52.356Z,12.43
2023-04-06T20:18:55.968Z,12.07
2023-04-06T20:22:03.211Z,10.63
2023-04-06T20:25:10.621Z,14.20
2023-04-06T20:28:14.155Z,14.90
2023-04-06T20:31:17.686Z,13.40
2023-04-06T20:34:21.934Z,14.77
2023-04-06T20:37:25.787Z,12.33
2023-04-06T20:40:31.157Z,9.60
2023-04-06T20:43:35.582Z,10.50
2023-04-06T20:46:39.243Z,10.80
2023-04-06T20:49:42.757Z,10.00
2023-04-06T20:52:46.969Z,11.50
2023-04-06T20:55:51.843Z,11.20
2023-04-06T20:58:55.575Z,10.33
2023-04-06T21:01:59.294Z,13.27
2023-04-06T21:05:03.330Z,8.70
2023-04-06T21:08:07.023Z,8.83
2023-04-06T21:11:12.398Z,13.50
2023-04-06T21:14:16.900Z,10.60
2023-04-06T21:17:21.510Z,11.60
2023-04-06T21:20:25.100Z,9.60
2023-04-06T21:23:28.903Z,10.90
2023-04-06T21:26:33.800Z,9.80
2023-04-06T21:29:37.420Z,9.00
2023-04-06T21:32:41.007Z,10.43
2023-04-06T21:35:44.644Z,11.47
2023-04-06T21:38:48.202Z,15.03
2023-04-06T21:41:53.630Z,12.37
2023-04-06T21:44:58.300Z,10.60
2023-04-06T21:48:02.697Z,11.57
2023-04-06T21:51:06.249Z,11.40
2023-04-06T21:54:09.996Z,12.37
2023-04-06T21:57:14.857Z,12.93
2023-04-06T22:00:20.481Z,11.53
2023-04-06T22:03:24.120Z,15.20
2023-04-06T22:06:29.956Z,11.13
2023-04-06T22:09:33.658Z,12.33
2023-04-06T22:12:38.647Z,12.67
2023-04-06T22:15:42.160Z,12.27
2023-04-06T22:18:45.771Z,11.97
2023-04-06T22:21:50.040Z,12.50
2023-04-06T22:24:54.029Z,13.30
2023-04-06T22:27:58.944Z,13.40
2023-04-06T22:31:02.495Z,12.70
2023-04-06T22:34:06.170Z,14.13
2023-04-06T22:37:09.709Z,11.07
2023-04-06T22:40:14.682Z,14.20
2023-04-06T22:43:19.612Z,13.27
2023-04-06T22:46:23.640Z,13.57
2023-04-06T22:49:27.163Z,11.33
2023-04-06T22:52:30.796Z,12.97
2023-04-06T22:55:34.639Z,12.77
2023-04-06T22:58:39.503Z,15.47
2023-04-06T23:01:43.321Z,14.03
2023-04-06T23:04:47.036Z,17.33
2023-04-06T23:07:51.294Z,15.30
2023-04-06T23:10:54.779Z,12.33
2023-04-06T23:13:59.779Z,12.57
2023-04-06T23:17:03.469Z,11.87
2023-04-06T23:20:08.769Z,14.03
2023-04-06T23:23:12.269Z,12.17
2023-04-06T23:26:15.842Z,13.90
2023-04-06T23:29:20.743Z,15.97
2023-04-06T23:32:24.478Z,16.10
2023-04-06T23:35:28.069Z,12.13
2023-04-06T23:38:31.593Z,14.07
2023-04-06T23:41:35.659Z,15.07
2023-04-06T23:44:40.594Z,18.50
2023-04-06T23:47:45.961Z,12.90
2023-04-06T23:50:49.571Z,16.23
2023-04-06T23:53:53.108Z,15.10
2023-04-06T23:56:58.477Z,16.60
